createdAt,value
2022-08-19T00:02:16.317Z,12.13
2022-08-19T00:04:53.586Z,11.27
2022-08-19T00:07:27.306Z,9.18
2022-08-19T00:10:00.735Z,13.40
2022-08-19T00:12:34.914Z,12.02
2022-08-19T00:15:21.870Z,15.50
2022-08-19T00:17:56.760Z,11.75
2022-08-19T00:20:30.369Z,12.30
2022-08-19T00:23:05.838Z,14.23
2022-08-19T00:25:39.391Z,10.30
2022-08-19T00:28:13.679Z,12.63
2022-08-19T00:30:48.608Z,14.60
2022-08-19T00:33:22.599Z,17.65
2022-08-19T00:35:58.058Z,14.98
2022-08-19T00:38:37.573Z,15.48
2022-08-19T00:41:12.491Z,12.75
2022-08-19T00:43:58.584Z,10.98
2022-08-19T00:46:34.774Z,12.98
2022-08-19T00:49:12.537Z,12.77
2022-08-19T00:51:49.243Z,15.35
2022-08-19T00:54:28.271Z,11.52
2022-08-19T00:57:09.847Z,11.50
2022-08-19T01:00:00.327Z,12.05
2022-08-19T01:02:38.128Z,12.95
2022-08-19T01:05:16.174Z,11.95
2022-08-19T01:07:51.640Z,11.77
2022-08-19T01:10:31.561Z,15.63
2022-08-19T01:13:07.762Z,13.87
2022-08-19T01:15:45.617Z,14.35
2022-08-19T01:18:21.769Z,14.70
2022-08-19T01:20:58.587Z,10.27
2022-08-19T01:23:44.522Z,14.02
2022-08-19T01:26:20.864Z,11.82
2022-08-19T01:28:59.663Z,17.23
2022-08-19T01:31:34.694Z,13.48
2022-08-19T01:34:09.322Z,12.93
2022-08-19T01:36:46.583Z,10.77
2022-08-19T01:39:23.824Z,10.27
2022-08-19T01:41:57.406Z,13.00
2022-08-19T01:44:31.092Z,9.68
2022-08-19T01:47:05.367Z,11.15
2022-08-19T01:49:39.287Z,13.50
2022-08-19T01:52:13.131Z,11.48
2022-08-19T01:54:47.935Z,9.27
2022-08-19T01:57:21.747Z,11.57
2022-08-19T01:59:55.259Z,9.68
2022-08-19T02:02:28.998Z,10.75
2022-08-19T02:05:02.392Z,10.07
2022-08-19T02:07:36.232Z,8.32
2022-08-19T02:10:18.674Z,8.40
2022-08-19T02:12:52.382Z,9.95
2022-08-19T02:15:26.882Z,11.75
2022-08-19T02:18:00.303Z,12.27
2022-08-19T02:20:33.824Z,12.23
2022-08-19T02:23:13.704Z,11.82
2022-08-19T02:25:53.606Z,12.32
2022-08-19T02:28:27.459Z,11.05
2022-08-19T02:31:01.744Z,13.77
2022-08-19T02:33:35.146Z,10.30
2022-08-19T02:36:10.635Z,12.43
2022-08-19T02:38:47.656Z,11.10
2022-08-19T02:41:32.301Z,11.70
2022-08-19T02:44:28.757Z,11.73
2022-08-19T02:47:00.172Z,13.20
2022-08-19T02:49:34.682Z,11.02
2022-08-19T02:52:08.696Z,9.18
2022-08-19T02:54:42.072Z,11.20
2022-08-19T02:57:16.860Z,11.15
2022-08-19T02:59:50.832Z,11.25
2022-08-19T03:02:24.360Z,11.45
2022-08-19T03:04:57.903Z,8.85
2022-08-19T03:07:31.665Z,8.25
2022-08-19T03:10:06.850Z,10.10
2022-08-19T03:12:42.076Z,8.68
2022-08-19T03:15:15.477Z,10.68
2022-08-19T03:17:49.105Z,12.23
2022-08-19T03:20:22.624Z,13.15
2022-08-19T03:22:56.057Z,9.30
2022-08-19T03:25:29.481Z,10.77
2022-08-19T03:28:04.824Z,11.82
2022-08-19T03:30:38.369Z,10.43
2022-08-19T03:33:18.025Z,11.02
2022-08-19T03:36:02.847Z,12.30
2022-08-19T03:38:36.836Z,10.73
2022-08-19T03:41:13.054Z,10.45
2022-08-19T03:43:49.536Z,14.13
2022-08-19T03:46:25.480Z,10.45
2022-08-19T03:49:00.905Z,10.18
2022-08-19T03:51:37.026Z,9.98
2022-08-19T03:54:13.873Z,11.07
2022-08-19T03:56:49.434Z,9.18
2022-08-19T03:59:27.532Z,10.07
2022-08-19T04:02:04.657Z,17.33
2022-08-19T04:04:38.742Z,14.27
2022-08-19T04:07:16.873Z,12.30
2022-08-19T04:09:51.461Z,11.27
2022-08-19T04:12:25.097Z,10.80
2022-08-19T04:15:00.614Z,16.17
2022-08-19T04:17:34.367Z,14.50
2022-08-19T04:20:08.485Z,15.07
2022-08-19T04:22:42.060Z,11.02
2022-08-19T04:25:15.669Z,12.25
2022-08-19T04:27:49.656Z,12.48
2022-08-19T04:30:24.576Z,10.18
2022-08-19T04:32:58.084Z,13.10
2022-08-19T04:35:37.493Z,11.18
2022-08-19T04:38:12.058Z,16.75
2022-08-19T04:41:06.541Z,13.25
2022-08-19T04:43:40.997Z,15.23
2022-08-19T04:46:28.513Z,12.15
2022-08-19T04:49:13.691Z,11.82
2022-08-19T04:51:49.668Z,12.98
2022-08-19T04:54:37.459Z,12.00
2022-08-19T04:57:12.329Z,14.23
2022-08-19T04:59:45.851Z,16.60
2022-08-19T05:02:20.642Z,15.27
2022-08-19T05:04:58.457Z,12.07
2022-08-19T05:07:31.888Z,11.93
2022-08-19T05:10:06.841Z,16.23
2022-08-19T05:12:40.447Z,18.02
2022-08-19T05:15:14.013Z,16.10
2022-08-19T05:18:02.652Z,11.93
2022-08-19T05:20:53.642Z,13.80
2022-08-19T05:23:27.252Z,14.13
2022-08-19T05:26:00.706Z,14.32
2022-08-19T05:28:34.153Z,17.88
2022-08-19T05:31:07.570Z,12.82
2022-08-19T05:33:42.606Z,13.07
2022-08-19T05:36:16.583Z,15.63
2022-08-19T05:38:51.125Z,21.13
2022-08-19T05:41:31.515Z,15.23
2022-08-19T05:44:10.165Z,14.27
2022-08-19T05:46:47.968Z,16.02
2022-08-19T05:49:24.495Z,15.25
2022-08-19T05:51:58.194Z,11.82
2022-08-19T05:54:32.118Z,17.77
2022-08-19T05:57:06.040Z,12.93
2022-08-19T05:59:39.577Z,15.32
2022-08-19T06:02:14.549Z,15.80
2022-08-19T06:04:49.411Z,12.98
2022-08-19T06:07:22.967Z,15.32
2022-08-19T06:10:00.192Z,14.15
2022-08-19T06:12:36.067Z,13.60
2022-08-19T06:15:13.030Z,16.30
2022-08-19T06:17:46.502Z,13.05
2022-08-19T06:20:39.762Z,15.23
2022-08-19T06:23:17.068Z,13.35
2022-08-19T06:25:50.680Z,13.07
2022-08-19T06:28:24.722Z,12.70
2022-08-19T06:30:58.109Z,15.15
2022-08-19T06:33:31.547Z,13.18
2022-08-19T06:36:07.136Z,14.77
2022-08-19T06:38:40.589Z,9.20
2022-08-19T06:41:14.078Z,9.10
2022-08-19T06:43:47.629Z,9.80
2022-08-19T06:46:21.089Z,12.77
2022-08-19T06:48:55.974Z,11.15
2022-08-19T06:54:19.294Z,10.75
2022-08-19T06:56:53.591Z,9.20
2022-08-19T06:59:29.150Z,9.70
2022-08-19T07:02:06.478Z,9.80
2022-08-19T07:04:42.194Z,9.73
2022-08-19T07:07:19.887Z,19.58
2022-08-19T07:09:59.945Z,11.32
2022-08-19T07:12:36.022Z,9.45
2022-08-19T07:15:12.525Z,10.35
2022-08-19T07:17:45.949Z,11.90
2022-08-19T07:20:23.065Z,9.25
2022-08-19T07:23:03.521Z,8.85
2022-08-19T07:25:41.849Z,9.30
2022-08-19T07:28:24.446Z,10.55
2022-08-19T07:30:58.247Z,9.85
2022-08-19T07:33:33.621Z,8.25
2022-08-19T07:36:08.304Z,13.10
2022-08-19T07:38:45.067Z,7.85
2022-08-19T07:41:21.812Z,8.15
2022-08-19T07:43:55.327Z,8.77
2022-08-19T07:46:29.321Z,8.52
2022-08-19T07:49:03.234Z,9.05
2022-08-19T07:51:37.300Z,16.80
2022-08-19T08:04:23.364Z,7.32
2022-08-19T08:09:49.626Z,10.25
2022-08-19T08:12:36.734Z,8.20
2022-08-19T08:15:17.364Z,6.72
2022-08-19T08:17:51.773Z,8.35
2022-08-19T08:20:26.640Z,7.78
2022-08-19T08:23:17.447Z,11.43
2022-08-19T08:25:50.896Z,6.90
2022-08-19T08:28:25.204Z,10.02
2022-08-19T08:31:01.470Z,6.90
2022-08-19T08:33:35.406Z,7.90
2022-08-19T08:36:11.923Z,8.30
2022-08-19T08:38:47.426Z,7.78
2022-08-19T08:41:28.880Z,8.27
2022-08-19T08:44:05.292Z,6.78
2022-08-19T08:46:43.542Z,5.40
2022-08-19T08:49:35.709Z,5.78
2022-08-19T08:52:17.681Z,8.63
2022-08-19T08:54:55.935Z,9.88
2022-08-19T08:57:37.074Z,9.18
2022-08-19T09:00:21.970Z,6.25
2022-08-19T09:02:56.042Z,8.40
2022-08-19T09:05:48.300Z,8.57
2022-08-19T09:08:33.606Z,8.10
2022-08-19T09:11:10.790Z,5.95
2022-08-19T09:13:58.210Z,5.10
2022-08-19T09:16:32.632Z,12.23
2022-08-19T09:19:08.146Z,8.00
2022-08-19T09:21:41.778Z,5.70
2022-08-19T09:24:16.535Z,7.40
2022-08-19T09:26:52.730Z,7.65
2022-08-19T09:29:26.461Z,7.82
2022-08-19T09:32:00.127Z,8.30
2022-08-19T09:34:37.862Z,8.55
2022-08-19T09:37:12.025Z,5.82
2022-08-19T09:39:50.059Z,10.35
2022-08-19T09:42:29.973Z,9.07
2022-08-19T09:45:05.408Z,13.07
2022-08-19T09:47:43.955Z,6.53
2022-08-19T09:50:19.138Z,6.20
2022-08-19T09:52:57.335Z,7.07
2022-08-19T09:55:32.833Z,7.38
2022-08-19T09:58:06.304Z,6.80
2022-08-19T10:00:40.251Z,12.60
2022-08-19T10:03:13.785Z,5.72
2022-08-19T10:05:50.435Z,6.80
2022-08-19T10:08:31.530Z,6.78
2022-08-19T10:11:27.817Z,5.38
2022-08-19T10:14:00.700Z,6.82
2022-08-19T10:16:34.268Z,6.13
2022-08-19T10:19:13.042Z,5.20
2022-08-19T10:21:50.062Z,5.85
2022-08-19T10:24:25.392Z,5.90
2022-08-19T10:27:00.258Z,5.35
2022-08-19T10:29:35.445Z,6.85
2022-08-19T10:32:11.041Z,5.32
2022-08-19T10:34:48.045Z,6.18
2022-08-19T10:37:23.462Z,5.05
2022-08-19T10:40:03.085Z,9.32
2022-08-19T10:42:39.926Z,7.03
2022-08-19T10:45:13.477Z,5.43
2022-08-19T10:47:47.745Z,6.25
2022-08-19T10:50:39.069Z,5.40
2022-08-19T10:53:12.626Z,5.30
2022-08-19T10:56:04.882Z,9.02
2022-08-19T10:58:39.672Z,7.63
2022-08-19T11:01:14.289Z,6.13
2022-08-19T11:03:47.731Z,5.70
2022-08-19T11:06:27.167Z,11.02
2022-08-19T11:09:01.559Z,10.43
2022-08-19T11:11:40.488Z,6.15
2022-08-19T11:14:18.431Z,6.30
2022-08-19T11:16:53.154Z,9.80
2022-08-19T11:19:27.176Z,6.57
2022-08-19T11:22:03.919Z,6.13
2022-08-19T11:24:38.747Z,5.10
2022-08-19T11:27:12.359Z,6.05
2022-08-19T11:29:47.224Z,5.85
2022-08-19T11:32:20.761Z,7.72
2022-08-19T11:34:56.775Z,6.82
2022-08-19T11:37:30.154Z,8.13
2022-08-19T11:40:03.613Z,6.88
2022-08-19T11:42:54.680Z,8.80
2022-08-19T11:45:31.214Z,8.77
2022-08-19T11:48:05.233Z,11.23
2022-08-19T11:50:42.314Z,7.95
2022-08-19T11:53:16.045Z,7.43
2022-08-19T11:55:50.242Z,8.60
2022-08-19T11:58:23.747Z,7.00
2022-08-19T12:00:58.848Z,7.57
2022-08-19T12:03:32.303Z,6.60
2022-08-19T12:06:07.256Z,5.15
2022-08-19T12:08:40.750Z,7.38
2022-08-19T12:11:15.729Z,8.63
2022-08-19T12:13:49.221Z,8.40
2022-08-19T12:16:26.728Z,6.85
2022-08-19T12:19:04.540Z,6.88
2022-08-19T12:21:38.218Z,8.25
2022-08-19T12:24:12.268Z,6.75
2022-08-19T12:26:52.628Z,7.57
2022-08-19T12:29:30.511Z,9.43
2022-08-19T12:32:05.575Z,9.15
2022-08-19T12:34:39.289Z,7.38
2022-08-19T12:37:13.196Z,5.50
2022-08-19T12:39:47.328Z,6.10
2022-08-19T12:42:23.069Z,6.78
2022-08-19T12:44:56.636Z,5.80
2022-08-19T12:47:31.777Z,5.75
2022-08-19T12:50:09.490Z,6.22
2022-08-19T12:52:43.497Z,8.32
2022-08-19T12:55:17.136Z,6.90
2022-08-19T12:57:51.568Z,6.15
2022-08-19T13:00:25.552Z,6.22
2022-08-19T13:03:00.834Z,9.27
2022-08-19T13:05:35.608Z,10.50
2022-08-19T13:08:09.040Z,11.80
2022-08-19T13:10:42.622Z,7.30
2022-08-19T13:13:16.029Z,8.60
2022-08-19T13:15:50.035Z,7.47
2022-08-19T13:18:25.089Z,6.85
2022-08-19T13:20:58.565Z,7.18
2022-08-19T13:23:32.373Z,6.70
2022-08-19T13:26:08.428Z,7.75
2022-08-19T13:29:01.202Z,7.97
2022-08-19T13:31:54.556Z,6.65
2022-08-19T13:34:33.601Z,7.93
2022-08-19T13:37:07.555Z,6.55
2022-08-19T13:39:41.064Z,7.20
2022-08-19T13:42:14.967Z,5.63
2022-08-19T13:44:48.816Z,6.20
2022-08-19T13:47:22.212Z,7.65
2022-08-19T13:49:56.971Z,9.15
2022-08-19T13:52:30.400Z,7.78
2022-08-19T13:55:05.433Z,8.57
2022-08-19T13:57:40.024Z,5.97
2022-08-19T14:00:19.356Z,9.52
2022-08-19T14:02:54.633Z,5.68
2022-08-19T14:05:32.747Z,6.95
2022-08-19T14:08:06.410Z,8.55
2022-08-19T14:10:40.236Z,10.70
2022-08-19T14:13:16.829Z,12.82
2022-08-19T14:15:50.872Z,9.30
2022-08-19T14:18:26.081Z,5.68
2022-08-19T14:21:04.078Z,6.90
2022-08-19T14:23:38.191Z,10.23
2022-08-19T14:26:14.479Z,10.35
2022-08-19T14:28:48.010Z,5.97
2022-08-19T14:31:28.988Z,5.88
2022-08-19T14:34:04.068Z,10.38
2022-08-19T14:36:39.478Z,7.35
2022-08-19T14:39:13.162Z,8.10
2022-08-19T14:41:46.979Z,7.47
2022-08-19T14:44:20.529Z,8.68
2022-08-19T14:46:54.615Z,6.40
2022-08-19T14:49:35.367Z,6.95
2022-08-19T14:52:19.659Z,6.70
2022-08-19T14:54:53.095Z,9.85
2022-08-19T14:57:27.069Z,7.53
2022-08-19T15:00:01.645Z,6.10
2022-08-19T15:02:35.626Z,6.05
2022-08-19T15:05:10.001Z,8.43
2022-08-19T15:07:45.321Z,7.45
2022-08-19T15:10:18.969Z,11.27
2022-08-19T15:12:54.185Z,5.45
2022-08-19T15:15:28.780Z,5.88
2022-08-19T15:18:03.672Z,6.50
2022-08-19T15:20:37.075Z,6.30
2022-08-19T15:23:12.553Z,7.07
2022-08-19T15:25:46.917Z,8.85
2022-08-19T15:28:20.315Z,10.18
2022-08-19T15:30:54.236Z,8.93
2022-08-19T15:33:27.770Z,25.92
2022-08-19T15:36:01.363Z,9.15
2022-08-19T15:38:40.287Z,11.13
2022-08-19T15:41:26.586Z,12.30
2022-08-19T15:44:03.739Z,10.57
2022-08-19T15:46:39.351Z,8.82
2022-08-19T15:49:14.818Z,9.05
2022-08-19T15:51:50.136Z,13.27
2022-08-19T15:54:25.447Z,8.23
2022-08-19T15:57:16.519Z,11.00
2022-08-19T16:00:07.562Z,6.38
2022-08-19T16:02:58.692Z,7.28
2022-08-19T16:05:50.006Z,8.50
2022-08-19T16:08:23.377Z,9.45
2022-08-19T16:10:58.175Z,8.45
2022-08-19T16:13:32.837Z,10.88
2022-08-19T16:16:06.414Z,9.35
2022-08-19T16:18:39.765Z,11.35
2022-08-19T16:21:14.071Z,7.60
2022-08-19T16:23:48.999Z,7.50
2022-08-19T16:26:25.328Z,11.50
2022-08-19T16:29:03.733Z,9.00
2022-08-19T16:31:43.521Z,7.07
2022-08-19T16:34:17.340Z,6.88
2022-08-19T16:36:50.782Z,9.93
2022-08-19T16:39:24.430Z,9.10
2022-08-19T16:41:59.193Z,8.48
2022-08-19T16:44:32.938Z,10.02
2022-08-19T16:47:06.594Z,9.73
2022-08-19T16:49:54.611Z,9.55
2022-08-19T16:52:28.663Z,8.32
2022-08-19T16:55:02.104Z,7.53
2022-08-19T16:57:37.012Z,6.80
2022-08-19T17:00:12.781Z,7.80
2022-08-19T17:02:46.170Z,10.05
2022-08-19T17:05:19.745Z,7.68
2022-08-19T17:07:53.368Z,12.40
2022-08-19T17:10:26.966Z,9.40
2022-08-19T17:13:01.753Z,7.85
2022-08-19T17:15:35.464Z,9.77
2022-08-19T17:18:10.437Z,12.00
2022-08-19T17:20:46.308Z,10.73
2022-08-19T17:23:22.067Z,19.65
2022-08-19T17:26:18.608Z,8.30
2022-08-19T17:28:56.671Z,11.35
2022-08-19T17:31:32.430Z,15.73
2022-08-19T17:34:06.070Z,10.38
2022-08-19T17:36:40.371Z,9.25
2022-08-19T17:39:14.123Z,8.93
2022-08-19T17:41:47.513Z,7.00
2022-08-19T17:44:22.339Z,10.48
2022-08-19T17:46:56.356Z,7.40
2022-08-19T17:49:29.775Z,9.23
2022-08-19T17:52:09.929Z,7.20
2022-08-19T17:54:43.658Z,8.23
2022-08-19T17:57:17.109Z,9.38
2022-08-19T17:59:51.959Z,19.05
2022-08-19T18:02:26.314Z,13.25
2022-08-19T18:05:05.491Z,10.32
2022-08-19T18:07:38.936Z,9.13
2022-08-19T18:10:18.952Z,9.98
2022-08-19T18:12:53.138Z,8.80
2022-08-19T18:15:28.185Z,10.43
2022-08-19T18:18:01.594Z,10.57
2022-08-19T18:20:36.656Z,11.27
2022-08-19T18:23:44.405Z,9.60
2022-08-19T18:26:04.950Z,11.88
2022-08-19T18:28:39.834Z,11.93
2022-08-19T18:31:24.560Z,8.93
2022-08-19T18:33:57.974Z,7.93
2022-08-19T18:36:53.015Z,11.38
2022-08-19T18:39:45.212Z,9.77
2022-08-19T18:42:36.857Z,9.38
2022-08-19T18:45:28.915Z,13.77
2022-08-19T18:48:27.227Z,11.48
2022-08-19T18:51:02.849Z,10.40
2022-08-19T18:53:38.960Z,11.70
2022-08-19T18:56:16.565Z,13.32
2022-08-19T18:58:50.454Z,12.52
2022-08-19T19:01:30.924Z,13.13
2022-08-19T19:04:10.610Z,13.65
2022-08-19T19:06:44.316Z,12.70
2022-08-19T19:09:21.029Z,10.73
2022-08-19T19:11:57.213Z,12.00
2022-08-19T19:14:48.748Z,10.10
2022-08-19T19:17:28.051Z,12.40
2022-08-19T19:20:03.463Z,12.23
2022-08-19T19:22:36.946Z,9.75
2022-08-19T19:25:11.477Z,16.40
2022-08-19T19:27:44.888Z,14.07
2022-08-19T19:30:18.389Z,13.05
2022-08-19T19:32:51.803Z,13.25
2022-08-19T19:35:26.999Z,16.30
2022-08-19T19:38:01.499Z,15.48
2022-08-19T19:40:35.265Z,13.52
2022-08-19T19:43:08.919Z,16.00
2022-08-19T19:45:42.316Z,14.00
2022-08-19T19:48:16.559Z,12.85
2022-08-19T19:50:53.964Z,15.85
2022-08-19T19:53:30.402Z,15.02
2022-08-19T19:56:04.354Z,17.08
2022-08-19T19:58:37.991Z,18.67
2022-08-19T20:01:12.701Z,18.17
2022-08-19T20:03:53.000Z,21.85
2022-08-19T20:06:29.192Z,15.15
2022-08-19T20:09:11.003Z,15.77
2022-08-19T20:11:47.802Z,20.25
2022-08-19T20:14:24.195Z,15.25
2022-08-19T20:16:58.118Z,16.55
2022-08-19T20:19:37.258Z,14.57
2022-08-19T20:22:14.117Z,20.15
2022-08-19T20:24:48.479Z,17.20
2022-08-19T20:27:25.825Z,16.73
2022-08-19T20:30:03.697Z,14.48
2022-08-19T20:32:37.457Z,17.67
2022-08-19T20:35:11.761Z,14.77
2022-08-19T20:37:46.673Z,14.95
2022-08-19T20:40:21.931Z,11.98
2022-08-19T20:42:55.810Z,15.48
2022-08-19T20:45:33.558Z,17.88
2022-08-19T20:48:10.595Z,14.23
2022-08-19T20:50:44.083Z,20.27
2022-08-19T20:53:23.447Z,15.50
2022-08-19T20:55:59.752Z,14.43
2022-08-19T20:58:34.157Z,18.13
2022-08-19T21:01:10.739Z,20.38
2022-08-19T21:03:44.315Z,20.58
2022-08-19T21:06:17.742Z,18.92
2022-08-19T21:08:56.998Z,21.63
2022-08-19T21:11:31.273Z,23.05
2022-08-19T21:14:04.846Z,17.15
2022-08-19T21:16:38.272Z,15.90
2022-08-19T21:19:11.736Z,18.70
2022-08-19T21:21:45.123Z,24.50
2022-08-19T21:24:19.964Z,16.73
2022-08-19T21:26:53.397Z,19.02
2022-08-19T21:29:26.845Z,15.80
2022-08-19T21:32:00.392Z,17.77
2022-08-19T21:34:34.513Z,15.45
2022-08-19T21:37:08.101Z,17.85
2022-08-19T21:39:52.349Z,18.65
2022-08-19T21:42:26.334Z,18.27
2022-08-19T21:45:00.067Z,16.75
2022-08-19T21:47:33.465Z,15.73
2022-08-19T21:50:08.374Z,17.67
2022-08-19T21:52:41.936Z,13.40
2022-08-19T21:55:17.281Z,16.98
2022-08-19T21:57:50.674Z,18.33
2022-08-19T22:00:25.836Z,15.35
2022-08-19T22:03:01.325Z,17.88
2022-08-19T22:05:35.225Z,22.88
2022-08-19T22:08:11.472Z,21.20
2022-08-19T22:10:46.662Z,16.17
2022-08-19T22:13:20.453Z,15.75
2022-08-19T22:15:55.282Z,15.70
2022-08-19T22:18:28.670Z,19.98
2022-08-19T22:21:02.103Z,18.50
2022-08-19T22:23:35.504Z,16.05
2022-08-19T22:26:10.587Z,19.13
2022-08-19T22:28:44.771Z,15.60
2022-08-19T22:31:18.548Z,15.45
2022-08-19T22:33:52.954Z,17.92
2022-08-19T22:36:27.084Z,17.70
2022-08-19T22:39:01.730Z,18.67
2022-08-19T22:41:37.464Z,15.18
2022-08-19T22:44:11.574Z,17.38
2022-08-19T22:46:46.059Z,15.85
2022-08-19T22:49:19.754Z,18.50
2022-08-19T22:52:10.781Z,16.17
2022-08-19T22:54:44.870Z,21.70
2022-08-19T22:57:20.732Z,17.27
2022-08-19T22:59:56.151Z,15.15
2022-08-19T23:02:38.561Z,13.57
2022-08-19T23:05:27.894Z,17.65
2022-08-19T23:08:01.474Z,15.00
2022-08-19T23:10:34.990Z,15.93
2022-08-19T23:13:09.957Z,18.27
2022-08-19T23:15:43.602Z,15.23
2022-08-19T23:18:17.300Z,15.27
2022-08-19T23:20:52.207Z,13.75
2022-08-19T23:23:26.478Z,16.50
2022-08-19T23:26:00.019Z,17.20
2022-08-19T23:28:52.609Z,14.40
2022-08-19T23:31:27.648Z,20.98
2022-08-19T23:34:02.097Z,21.10
2022-08-19T23:36:35.724Z,16.05
2022-08-19T23:39:09.438Z,20.05
2022-08-19T23:41:43.031Z,21.05
2022-08-19T23:44:18.345Z,15.18
2022-08-19T23:46:54.280Z,16.10
2022-08-19T23:49:29.012Z,15.60
2022-08-19T23:52:02.462Z,14.45
2022-08-19T23:54:43.653Z,15.27
2022-08-19T23:57:17.390Z,17.33
2022-08-19T23:59:52.373Z,20.67
